Time;durP1;ratioP1;P1;durP2;ratioP2;P2;SDS_P1;SDS_P2;PMS_P1;PMS_P2;Temp;Humidity;BMP_temperature;BMP_pressure;BME280_temperature;BME280_humidity;BME280_pressure;Samples;Min_cycle;Max_cycle;Signal;HPM_P1;HPM_P2
2023/12/29 00:01:39;;;;;;;6.85;2.97;;;21.30;46.60;;;;;;8358813;28;20402;-47
2023/12/29 00:05:40;;;;;;;8.25;2.55;;;21.00;47.50;;;;;;8364135;28;20053;-47
2023/12/29 00:09:40;;;;;;;10.43;2.97;;;20.90;47.90;;;;;;8366535;28;20029;-47
2023/12/29 00:13:41;;;;;;;14.48;3.22;;;20.80;48.30;;;;;;8365107;28;20032;-47
2023/12/29 00:17:42;;;;;;;8.70;3.20;;;20.60;48.30;;;;;;8362086;28;20441;-49
2023/12/29 00:21:43;;;;;;;17.13;3.50;;;20.50;48.30;;;;;;8363764;28;20033;-48
2023/12/29 00:25:43;;;;;;;6.43;2.78;;;20.50;48.70;;;;;;8363436;28;20044;-47
2023/12/29 00:29:44;;;;;;;14.20;3.58;;;20.50;48.90;;;;;;8363729;28;20411;-47
2023/12/29 00:33:45;;;;;;;;;;;20.40;49.10;;;;;;8364304;28;20467;-47
2023/12/29 00:37:46;;;;;;;7.00;3.07;;;20.40;49.30;;;;;;8354183;28;19913;-49
2023/12/29 00:41:46;;;;;;;7.53;3.78;;;20.40;49.40;;;;;;8335356;28;20612;-48
2023/12/29 00:45:47;;;;;;;3.80;2.58;;;20.40;49.50;;;;;;8329532;28;20544;-48
2023/12/29 00:49:48;;;;;;;9.40;2.97;;;20.30;49.60;;;;;;8357417;28;20040;-48
2023/12/29 00:53:48;;;;;;;6.63;2.63;;;20.30;49.60;;;;;;8363353;28;20037;-49
2023/12/29 00:57:49;;;;;;;5.75;2.88;;;20.30;49.70;;;;;;8363476;28;20032;-51
2023/12/29 01:01:50;;;;;;;10.90;2.88;;;20.30;49.70;;;;;;8359321;28;20037;-50
2023/12/29 01:05:50;;;;;;;10.43;2.55;;;20.30;49.80;;;;;;8352054;28;20434;-48
2023/12/29 01:09:51;;;;;;;4.68;2.38;;;20.20;49.90;;;;;;8329916;28;20057;-49
2023/12/29 01:13:52;;;;;;;5.57;2.47;;;20.20;49.90;;;;;;8356127;28;20041;-47
2023/12/29 01:17:52;;;;;;;4.32;2.78;;;20.20;50.00;;;;;;8362740;28;20116;-49
2023/12/29 01:21:53;;;;;;;4.32;2.72;;;20.20;49.90;;;;;;8362544;28;20033;-49
2023/12/29 01:25:54;;;;;;;13.65;2.97;;;20.10;49.90;;;;;;8361454;28;20098;-47
2023/12/29 01:29:54;;;;;;;6.07;2.67;;;20.10;50.00;;;;;;8361375;28;20040;-49
2023/12/29 01:33:55;;;;;;;7.15;2.65;;;20.10;50.00;;;;;;8362101;28;20040;-51
2023/12/29 01:37:56;;;;;;;6.43;2.78;;;20.20;50.20;;;;;;8360912;28;20037;-56
2023/12/29 01:41:57;;;;;;;;;;;20.10;50.20;;;;;;8362398;28;20033;-53
2023/12/29 01:45:57;;;;;;;5.97;2.60;;;20.10;50.30;;;;;;8361923;28;19908;-54
2023/12/29 01:49:58;;;;;;;12.90;2.88;;;20.00;50.30;;;;;;8361923;28;20490;-52
2023/12/29 01:53:59;;;;;;;8.50;2.70;;;20.00;50.30;;;;;;8361487;28;20040;-52
2023/12/29 01:58:01;;;;;;;6.75;3.08;;;20.00;50.40;;;;;;8361804;28;20030;-52
2023/12/29 02:02:02;;;;;;;6.40;3.47;;;20.00;50.50;;;;;;8361213;28;20025;-51
2023/12/29 02:06:04;;;;;;;9.98;3.17;;;20.00;50.50;;;;;;8361177;28;20052;-50
2023/12/29 02:10:05;;;;;;;3.58;2.47;;;20.00;50.60;;;;;;8361152;28;20037;-51
2023/12/29 02:14:06;;;;;;;;;;;20.00;50.60;;;;;;8362018;28;20079;-52
2023/12/29 02:18:14;;;;;;;7.10;2.60;;;19.90;50.50;;;;;;8360176;28;20348;-50
2023/12/29 02:22:15;;;;;;;5.07;2.58;;;19.90;50.70;;;;;;8360655;28;20033;-51
2023/12/29 02:26:19;;;;;;;2.65;2.25;;;19.90;50.60;;;;;;8360288;28;20025;-51
2023/12/29 02:30:37;;;;;;;5.65;2.58;;;19.90;50.60;;;;;;8360467;28;20079;-51
2023/12/29 02:34:41;;;;;;;4.47;2.30;;;19.90;50.60;;;;;;8360434;28;20021;-52
2023/12/29 02:38:42;;;;;;;8.63;2.80;;;19.90;50.60;;;;;;8360242;28;20055;-52
2023/12/29 02:42:47;;;;;;;5.75;2.55;;;19.90;50.60;;;;;;8358919;28;20110;-50
2023/12/29 02:46:48;;;;;;;4.45;2.42;;;19.90;50.60;;;;;;8360301;28;20482;-52
2023/12/29 02:50:48;;;;;;;5.43;2.70;;;19.90;50.70;;;;;;8359972;28;20389;-49
2023/12/29 02:54:49;;;;;;;3.70;2.63;;;19.90;50.70;;;;;;8359838;28;20378;-52
2023/12/29 02:58:51;;;;;;;7.10;2.70;;;19.90;50.70;;;;;;8359985;28;20071;-52
2023/12/29 03:02:52;;;;;;;4.80;2.40;;;19.90;51.20;;;;;;8360172;28;20045;-50
2023/12/29 03:06:52;;;;;;;4.28;2.30;;;19.90;50.70;;;;;;8359273;28;20617;-49
2023/12/29 03:10:55;;;;;;;3.95;2.50;;;19.90;50.70;;;;;;8360037;28;20037;-50
2023/12/29 03:14:56;;;;;;;3.72;2.45;;;19.90;50.70;;;;;;8359844;28;20040;-48
2023/12/29 03:18:56;;;;;;;4.45;1.95;;;19.90;50.70;;;;;;8359434;28;20501;-48
2023/12/29 03:22:57;;;;;;;4.15;2.53;;;19.80;50.70;;;;;;8358387;28;20044;-49
2023/12/29 03:26:58;;;;;;;3.53;2.00;;;19.80;50.80;;;;;;8359419;28;20044;-49
2023/12/29 03:30:58;;;;;;;6.07;2.50;;;19.80;50.80;;;;;;8357965;28;20025;-48
2023/12/29 03:34:59;;;;;;;2.53;2.08;;;19.80;50.90;;;;;;8359397;28;20037;-47
2023/12/29 03:39:00;;;;;;;4.75;2.55;;;19.90;50.90;;;;;;8358808;28;20036;-49
2023/12/29 03:43:00;;;;;;;3.42;2.05;;;19.80;50.80;;;;;;8364760;28;20039;-50
2023/12/29 03:47:02;;;;;;;5.43;2.20;;;19.90;51.00;;;;;;8365729;28;20029;-48
2023/12/29 03:51:02;;;;;;;9.52;2.70;;;19.80;51.00;;;;;;8365307;28;20037;-49
2023/12/29 03:55:03;;;;;;;3.03;2.40;;;19.80;51.00;;;;;;8365600;28;20056;-48
2023/12/29 03:59:04;;;;;;;4.50;2.67;;;19.80;51.00;;;;;;8365179;28;20029;-47
2023/12/29 04:03:05;;;;;;;7.28;2.55;;;19.90;51.00;;;;;;8364905;28;20121;-51
2023/12/29 04:07:05;;;;;;;5.03;2.10;;;19.80;51.10;;;;;;8364825;28;20053;-52
2023/12/29 04:11:06;;;;;;;3.22;1.88;;;19.80;51.00;;;;;;8364916;28;20041;-55
2023/12/29 04:15:07;;;;;;;5.47;2.15;;;19.80;51.10;;;;;;8364661;28;20025;-50
2023/12/29 04:19:08;;;;;;;7.00;2.30;;;19.80;51.00;;;;;;8363613;28;20123;-50
2023/12/29 04:23:09;;;;;;;5.60;1.95;;;19.80;51.00;;;;;;8364655;28;20087;-50
2023/12/29 04:27:10;;;;;;;6.18;2.40;;;19.90;51.00;;;;;;8364106;28;20233;-49
2023/12/29 04:31:10;;;;;;;3.85;2.00;;;19.80;51.00;;;;;;8364378;28;20037;-54
2023/12/29 04:35:12;;;;;;;2.28;1.77;;;19.80;51.00;;;;;;8364056;28;20421;-49
2023/12/29 04:39:13;;;;;;;2.63;2.03;;;19.80;51.00;;;;;;8364151;28;20039;-48
2023/12/29 04:43:14;;;;;;;2.85;1.83;;;19.80;50.90;;;;;;8362639;28;20087;-51
2023/12/29 04:47:14;;;;;;;2.58;2.00;;;19.80;51.00;;;;;;8363654;28;20065;-52
2023/12/29 04:51:15;;;;;;;4.47;1.90;;;19.80;51.00;;;;;;8362098;28;20120;-49
2023/12/29 04:55:16;;;;;;;3.45;2.17;;;19.80;51.00;;;;;;8363641;28;20406;-52
2023/12/29 04:59:16;;;;;;;3.50;1.85;;;19.80;51.00;;;;;;8361788;28;20033;-52
2023/12/29 05:03:17;;;;;;;2.72;1.95;;;19.80;51.10;;;;;;8363504;28;20159;-54
2023/12/29 05:07:18;;;;;;;2.55;1.80;;;19.80;51.10;;;;;;8345145;28;20140;-53
2023/12/29 05:11:18;;;;;;;2.38;2.10;;;19.80;51.10;;;;;;8362842;28;20445;-53
2023/12/29 05:15:19;;;;;;;3.00;1.70;;;19.80;51.10;;;;;;8362958;28;20090;-53
2023/12/29 05:19:20;;;;;;;3.10;2.05;;;19.80;51.20;;;;;;8362979;28;20029;-51
2023/12/29 05:23:20;;;;;;;2.72;1.85;;;19.80;51.10;;;;;;8362616;28;20033;-52
2023/12/29 05:27:21;;;;;;;2.92;1.73;;;19.80;51.00;;;;;;8362509;28;20029;-52
2023/12/29 05:31:22;;;;;;;3.42;1.90;;;19.80;51.00;;;;;;8362292;28;20552;-53
2023/12/29 05:35:22;;;;;;;2.55;1.52;;;19.90;51.00;;;;;;8362295;28;20475;-49
2023/12/29 05:39:24;;;;;;;3.45;1.80;;;19.90;51.00;;;;;;8362064;28;20036;-53
2023/12/29 05:43:25;;;;;;;2.17;1.85;;;19.90;51.00;;;;;;8362026;28;20398;-53
2023/12/29 05:47:25;;;;;;;3.35;1.88;;;19.90;51.00;;;;;;8361911;28;20244;-51
2023/12/29 05:51:26;;;;;;;3.00;1.95;;;19.90;51.00;;;;;;8361667;28;20569;-51
2023/12/29 05:55:27;;;;;;;2.45;1.95;;;19.90;51.00;;;;;;8361552;28;20076;-52
2023/12/29 05:59:27;;;;;;;2.63;1.90;;;19.90;51.00;;;;;;8361518;28;20036;-53
2023/12/29 06:03:28;;;;;;;2.60;2.13;;;19.90;51.10;;;;;;8360643;28;20040;-54
2023/12/29 06:07:29;;;;;;;1.75;1.50;;;19.90;51.00;;;;;;8361026;28;20064;-52
2023/12/29 06:11:30;;;;;;;2.97;2.10;;;19.90;51.00;;;;;;8360999;28;20111;-54
2023/12/29 06:15:30;;;;;;;2.10;1.90;;;19.90;51.00;;;;;;8361134;28;20033;-53
2023/12/29 06:19:32;;;;;;;2.10;1.85;;;19.90;51.00;;;;;;8360909;28;20082;-54
2023/12/29 06:23:33;;;;;;;2.05;1.75;;;19.90;50.90;;;;;;8360848;28;20403;-53
2023/12/29 06:27:37;;;;;;;2.25;1.40;;;19.90;50.90;;;;;;8360726;28;20037;-54
2023/12/29 06:31:41;;;;;;;4.00;1.77;;;19.90;51.00;;;;;;8360527;28;20041;-49
2023/12/29 06:35:42;;;;;;;2.72;1.80;;;20.00;50.90;;;;;;8360635;28;20025;-50
2023/12/29 06:39:43;;;;;;;2.15;1.58;;;20.00;51.00;;;;;;8359311;28;20163;-49
2023/12/29 06:43:43;;;;;;;1.85;1.50;;;20.00;50.90;;;;;;8360175;28;20098;-49
2023/12/29 06:47:44;;;;;;;2.78;1.90;;;20.00;50.80;;;;;;8360376;28;20029;-49
2023/12/29 06:51:45;;;;;;;3.70;1.85;;;20.00;51.00;;;;;;8360114;28;20128;-49
2023/12/29 06:55:46;;;;;;;2.47;1.80;;;19.90;51.00;;;;;;8359815;28;20036;-51
2023/12/29 06:59:47;;;;;;;4.32;1.83;;;19.90;51.00;;;;;;8360113;28;20029;-48
2023/12/29 07:03:47;;;;;;;2.63;1.90;;;20.00;51.00;;;;;;8359937;28;20040;-48
2023/12/29 07:07:48;;;;;;;1.90;1.70;;;19.90;51.00;;;;;;8359487;28;20053;-49
2023/12/29 07:11:49;;;;;;;2.80;1.40;;;20.00;51.10;;;;;;8359662;28;20033;-48
2023/12/29 07:15:50;;;;;;;2.92;1.45;;;20.00;50.90;;;;;;8369337;28;20091;-47
2023/12/29 07:19:51;;;;;;;2.33;2.08;;;20.00;51.20;;;;;;8369255;28;20498;-48
2023/12/29 07:23:51;;;;;;;2.10;1.65;;;20.00;51.00;;;;;;8370364;28;20037;-48
2023/12/29 07:27:52;;;;;;;1.50;1.40;;;19.90;50.90;;;;;;8370742;28;20086;-51
2023/12/29 07:31:53;;;;;;;2.08;1.58;;;19.90;51.00;;;;;;8370793;28;20040;-47
2023/12/29 07:35:54;;;;;;;2.15;1.45;;;19.90;51.00;;;;;;8370236;28;20033;-48
2023/12/29 07:39:55;;;;;;;2.53;1.60;;;19.90;51.00;;;;;;8370334;28;20383;-48
2023/12/29 07:43:55;;;;;;;1.80;1.60;;;19.90;51.00;;;;;;8370355;28;20599;-50
2023/12/29 07:47:57;;;;;;;2.78;1.27;;;19.90;51.20;;;;;;8370335;28;20120;-53
2023/12/29 07:51:59;;;;;;;;;;;19.90;51.20;;;;;;8370455;28;20029;-47
2023/12/29 07:56:00;;;;;;;1.98;1.63;;;19.90;51.10;;;;;;8370084;28;19915;-48
2023/12/29 08:00:01;;;;;;;2.72;1.70;;;19.90;51.20;;;;;;8369058;28;20029;-49
2023/12/29 08:04:04;;;;;;;1.65;1.23;;;19.90;51.00;;;;;;8369741;28;20041;-47
2023/12/29 08:08:05;;;;;;;1.92;1.67;;;19.90;51.00;;;;;;8369974;28;20507;-46
2023/12/29 08:12:06;;;;;;;2.13;1.58;;;19.90;51.20;;;;;;8370408;28;20434;-46
2023/12/29 08:16:08;;;;;;;;;;;19.90;51.10;;;;;;8370228;28;20033;-46
2023/12/29 08:20:09;;;;;;;2.30;2.10;;;19.90;51.10;;;;;;8369727;28;19911;-47
2023/12/29 08:24:10;;;;;;;1.92;1.52;;;19.80;51.20;;;;;;8368628;28;20029;-46
2023/12/29 08:28:11;;;;;;;2.17;1.40;;;19.80;51.20;;;;;;8364202;28;20482;-45
2023/12/29 08:32:11;;;;;;;2.42;1.75;;;19.90;51.50;;;;;;8363051;28;20046;-48
2023/12/29 08:36:12;;;;;;;1.80;1.52;;;19.90;51.50;;;;;;8364093;28;20032;-50
2023/12/29 08:40:13;;;;;;;1.58;1.20;;;19.90;51.30;;;;;;8364376;28;20029;-48
2023/12/29 08:44:14;;;;;;;2.08;1.60;;;19.90;51.20;;;;;;8364002;28;20044;-49
2023/12/29 08:48:15;;;;;;;2.65;1.50;;;19.90;51.20;;;;;;8363601;28;20039;-48
2023/12/29 08:52:16;;;;;;;1.90;1.42;;;19.90;51.30;;;;;;8363826;28;20033;-48
2023/12/29 08:56:17;;;;;;;1.35;1.25;;;19.90;51.30;;;;;;8363556;28;20041;-50
2023/12/29 09:00:17;;;;;;;1.77;1.38;;;19.90;51.20;;;;;;8363319;28;20053;-47
2023/12/29 09:04:18;;;;;;;3.70;1.45;;;19.90;51.20;;;;;;8363326;28;20055;-50
2023/12/29 09:08:19;;;;;;;1.40;1.27;;;19.90;51.50;;;;;;8363033;28;20048;-48
2023/12/29 09:12:19;;;;;;;1.85;1.40;;;19.90;51.20;;;;;;8362836;28;20402;-49
2023/12/29 09:16:20;;;;;;;3.88;1.50;;;19.90;51.10;;;;;;8361960;28;20037;-48
2023/12/29 09:20:21;;;;;;;1.45;1.17;;;19.90;51.10;;;;;;8363071;28;20029;-49
2023/12/29 09:24:21;;;;;;;2.08;1.33;;;19.90;51.00;;;;;;8362528;28;20037;-48
2023/12/29 09:28:22;;;;;;;2.33;1.65;;;19.90;51.20;;;;;;8362650;28;20033;-51
2023/12/29 09:32:23;;;;;;;2.40;1.27;;;19.90;51.30;;;;;;8362321;28;20033;-46
2023/12/29 09:36:24;;;;;;;2.17;1.63;;;19.90;51.30;;;;;;8361252;28;20033;-49
2023/12/29 09:40:25;;;;;;;2.42;1.45;;;19.90;51.60;;;;;;8362200;28;20029;-49
2023/12/29 09:44:28;;;;;;;1.17;1.08;;;19.90;51.40;;;;;;8361966;28;20082;-48
2023/12/29 09:48:31;;;;;;;5.63;1.50;;;19.90;51.50;;;;;;8362065;28;20033;-48
2023/12/29 09:52:33;;;;;;;2.00;1.80;;;19.90;51.20;;;;;;8361709;28;20444;-52
2023/12/29 09:56:34;;;;;;;2.90;1.52;;;20.00;51.40;;;;;;8360517;28;20475;-52
2023/12/29 10:00:35;;;;;;;2.97;1.30;;;20.00;51.60;;;;;;8361203;28;20454;-51
2023/12/29 10:04:36;;;;;;;;;;;20.00;51.40;;;;;;8360441;28;20040;-50
2023/12/29 10:08:38;;;;;;;5.50;1.67;;;20.00;51.30;;;;;;8361219;28;19920;-51
2023/12/29 10:12:39;;;;;;;2.58;1.35;;;20.00;51.50;;;;;;8360779;28;20119;-49
2023/12/29 10:16:42;;;;;;;;;;;20.10;51.50;;;;;;8361273;28;20060;-53
2023/12/29 10:20:48;;;;;;;4.22;1.40;;;20.10;51.40;;;;;;8360907;28;20003;-53
2023/12/29 10:24:51;;;;;;;2.40;1.52;;;20.10;51.50;;;;;;8360677;28;20490;-47
2023/12/29 10:28:52;;;;;;;3.72;1.17;;;20.10;51.40;;;;;;8360300;28;20032;-47
2023/12/29 10:32:53;;;;;;;4.45;1.40;;;20.10;51.60;;;;;;8360308;28;20048;-48
2023/12/29 10:36:55;;;;;;;2.55;1.30;;;20.10;51.40;;;;;;8339364;28;20026;-49
2023/12/29 10:41:17;;;;;;;5.63;1.40;;;20.10;51.30;;;;;;8334275;28;20040;-51
2023/12/29 10:45:18;;;;;;;2.95;1.30;;;20.00;51.50;;;;;;8327061;28;20033;-52
2023/12/29 10:49:19;;;;;;;;;;;20.10;51.40;;;;;;8326118;28;20079;-53
2023/12/29 10:53:20;;;;;;;2.27;1.73;;;20.10;51.30;;;;;;8335236;28;19908;-54
2023/12/29 10:57:20;;;;;;;1.48;1.15;;;20.00;51.40;;;;;;8339652;28;20435;-54
2023/12/29 11:01:23;;;;;;;3.55;1.65;;;20.10;51.40;;;;;;8359446;28;20091;-50
2023/12/29 11:05:27;;;;;;;1.75;1.40;;;20.10;51.40;;;;;;8359974;28;20041;-47
2023/12/29 11:09:33;;;;;;;7.28;2.00;;;20.00;51.50;;;;;;8359574;28;20046;-46
2023/12/29 11:13:36;;;;;;;7.15;2.28;;;20.10;53.00;;;;;;8344280;28;20722;-48
2023/12/29 11:17:37;;;;;;;6.13;1.73;;;20.10;53.60;;;;;;8328754;28;20046;-47
2023/12/29 11:21:39;;;;;;;7.97;2.30;;;20.10;53.40;;;;;;8327545;28;20475;-48
2023/12/29 11:25:40;;;;;;;6.78;2.33;;;20.10;53.60;;;;;;8326360;28;20041;-48
2023/12/29 11:29:42;;;;;;;9.95;2.10;;;20.10;53.50;;;;;;8327131;28;20029;-48
2023/12/29 11:33:52;;;;;;;4.78;1.90;;;20.10;53.40;;;;;;8326489;28;20483;-47
2023/12/29 11:38:01;;;;;;;6.13;2.60;;;20.10;53.00;;;;;;8326035;28;20021;-48
2023/12/29 11:42:14;;;;;;;7.50;4.30;;;19.90;52.50;;;;;;8325037;28;20426;-48
2023/12/29 11:46:37;;;;;;;6.18;4.35;;;19.70;51.50;;;;;;8325883;28;20387;-48
2023/12/29 11:50:42;;;;;;;7.95;4.88;;;19.60;51.10;;;;;;8325879;28;20057;-49
2023/12/29 11:54:42;;;;;;;14.80;5.18;;;19.70;53.20;;;;;;8325875;28;20041;-47
2023/12/29 11:58:46;;;;;;;8.15;4.72;;;19.80;51.70;;;;;;8351500;28;20051;-46
2023/12/29 12:02:49;;;;;;;10.32;5.20;;;19.90;53.20;;;;;;8363950;28;20039;-50
2023/12/29 12:06:49;;;;;;;9.20;4.30;;;20.00;53.20;;;;;;8364633;28;20506;-50
2023/12/29 12:10:50;;;;;;;6.72;3.65;;;20.10;53.30;;;;;;8364589;28;20433;-54
2023/12/29 12:14:52;;;;;;;6.18;3.58;;;20.10;52.20;;;;;;8359077;28;20033;-49
2023/12/29 12:18:53;;;;;;;7.72;2.90;;;19.90;50.80;;;;;;8358802;28;20104;-49
2023/12/29 12:23:07;;;;;;;8.80;3.22;;;19.80;51.70;;;;;;8352661;28;20040;-51
2023/12/29 12:27:11;;;;;;;9.27;2.88;;;20.00;51.60;;;;;;8363153;28;20057;-49
2023/12/29 12:31:13;;;;;;;8.00;2.00;;;20.10;51.20;;;;;;8354113;28;20037;-49
2023/12/29 12:35:17;;;;;;;29.55;4.00;;;20.10;50.70;;;;;;8342640;28;20459;-48
2023/12/29 12:39:18;;;;;;;8.02;2.03;;;20.20;50.90;;;;;;8333219;28;20040;-50
2023/12/29 12:43:24;;;;;;;7.13;2.55;;;20.20;50.70;;;;;;8332851;28;20041;-50
2023/12/29 12:47:31;;;;;;;5.85;2.28;;;20.20;50.90;;;;;;8333036;28;20030;-51
2023/12/29 12:51:33;;;;;;;4.60;2.13;;;20.20;50.70;;;;;;8334124;28;20036;-49
2023/12/29 12:55:35;;;;;;;8.45;2.08;;;20.20;50.80;;;;;;8333242;28;20037;-49
2023/12/29 12:59:36;;;;;;;6.20;1.80;;;20.20;50.80;;;;;;8365232;28;20040;-49
2023/12/29 13:03:38;;;;;;;4.35;2.17;;;20.20;50.80;;;;;;8338159;28;20033;-49
2023/12/29 13:07:39;;;;;;;6.90;2.63;;;20.30;50.70;;;;;;8331921;28;20116;-49
2023/12/29 13:11:43;;;;;;;5.22;2.10;;;20.30;50.70;;;;;;8331764;28;20038;-49
2023/12/29 13:15:50;;;;;;;7.30;2.05;;;20.30;50.90;;;;;;8331668;28;20479;-49
2023/12/29 13:19:57;;;;;;;7.90;1.92;;;20.20;51.20;;;;;;8346942;28;20029;-48
2023/12/29 13:24:03;;;;;;;3.78;1.65;;;20.30;51.10;;;;;;8364966;28;20033;-48
2023/12/29 13:28:05;;;;;;;4.65;2.05;;;20.30;51.00;;;;;;8357013;28;20474;-47
2023/12/29 13:32:11;;;;;;;8.82;1.80;;;20.30;51.10;;;;;;8364039;28;20083;-49
2023/12/29 13:36:23;;;;;;;4.78;1.70;;;20.30;51.20;;;;;;8363923;28;20029;-51
2023/12/29 13:40:27;;;;;;;8.70;2.20;;;20.30;51.20;;;;;;8363942;28;20079;-51
2023/12/29 13:44:29;;;;;;;45.70;12.90;;;20.40;51.20;;;;;;8350282;28;20513;-49
2023/12/29 13:48:32;;;;;;;30.58;8.43;;;20.50;52.90;;;;;;8348852;28;20033;-49
2023/12/29 13:52:36;;;;;;;53.35;12.63;;;20.50;52.20;;;;;;8343887;28;20107;-50
2023/12/29 13:56:38;;;;;;;35.17;9.63;;;20.50;52.90;;;;;;8363385;28;20025;-49
2023/12/29 14:00:43;;;;;;;41.03;8.43;;;20.50;52.60;;;;;;8353456;28;20032;-49
2023/12/29 14:04:45;;;;;;;24.15;7.80;;;20.60;52.20;;;;;;8340343;28;20045;-46
2023/12/29 14:08:46;;;;;;;34.13;7.85;;;20.60;51.90;;;;;;8354778;28;20095;-48
2023/12/29 14:12:47;;;;;;;25.75;7.88;;;20.60;51.80;;;;;;8337699;28;20171;-47
2023/12/29 14:16:48;;;;;;;23.23;6.72;;;20.60;52.00;;;;;;8353147;28;20082;-48
2023/12/29 14:20:49;;;;;;;23.58;7.53;;;20.60;51.90;;;;;;8363138;28;20037;-49
2023/12/29 14:25:07;;;;;;;20.23;6.95;;;20.60;52.00;;;;;;8362731;28;20079;-47
2023/12/29 14:29:10;;;;;;;23.55;6.68;;;20.70;52.30;;;;;;8349137;28;20025;-47
2023/12/29 14:33:11;;;;;;;19.58;6.43;;;20.70;52.50;;;;;;8352211;28;20108;-48
2023/12/29 14:37:11;;;;;;;20.95;6.40;;;20.70;52.30;;;;;;8354633;28;20493;-48
2023/12/29 14:41:12;;;;;;;23.48;6.55;;;20.70;52.30;;;;;;8355616;28;20422;-48
2023/12/29 14:45:13;;;;;;;14.85;6.05;;;20.70;52.40;;;;;;8355770;28;20120;-47
2023/12/29 14:49:14;;;;;;;17.52;5.25;;;20.70;52.40;;;;;;8362934;28;20056;-50
2023/12/29 14:53:14;;;;;;;17.48;5.07;;;20.70;52.50;;;;;;8362779;28;20037;-48
2023/12/29 14:57:15;;;;;;;22.55;6.13;;;20.70;52.50;;;;;;8362587;28;20060;-47
2023/12/29 15:01:17;;;;;;;18.20;5.38;;;20.70;52.40;;;;;;8355899;28;20054;-47
2023/12/29 15:05:18;;;;;;;17.75;5.45;;;20.70;52.30;;;;;;8329462;28;20526;-49
2023/12/29 15:09:20;;;;;;;24.00;5.18;;;20.70;52.40;;;;;;8329291;28;20406;-47
2023/12/29 15:13:21;;;;;;;20.75;5.88;;;20.80;52.30;;;;;;8329441;28;20034;-48
2023/12/29 15:17:21;;;;;;;23.13;5.88;;;20.80;52.50;;;;;;8329277;28;20080;-51
2023/12/29 15:21:22;;;;;;;16.40;4.90;;;20.80;52.40;;;;;;8335905;28;20087;-48
2023/12/29 15:25:24;;;;;;;15.63;5.45;;;20.80;52.50;;;;;;8361922;28;20033;-49
2023/12/29 15:29:29;;;;;;;20.90;4.88;;;20.80;52.60;;;;;;8359077;28;20040;-49
2023/12/29 15:33:30;;;;;;;15.88;5.40;;;20.80;52.50;;;;;;8344738;28;20493;-50
2023/12/29 15:37:30;;;;;;;13.32;5.10;;;20.80;52.30;;;;;;8354193;28;20106;-49
2023/12/29 15:41:34;;;;;;;23.20;4.72;;;20.90;52.90;;;;;;8351656;28;20410;-48
2023/12/29 15:45:35;;;;;;;20.90;5.90;;;20.90;52.70;;;;;;8349775;28;20037;-49
2023/12/29 15:49:39;;;;;;;23.17;5.50;;;20.90;52.50;;;;;;8334834;28;20038;-48
2023/12/29 15:53:40;;;;;;;21.50;6.00;;;21.00;52.40;;;;;;8349138;28;20397;-45
2023/12/29 15:57:40;;;;;;;20.60;5.57;;;21.00;52.60;;;;;;8353717;28;20029;-46
2023/12/29 16:01:41;;;;;;;10.63;4.22;;;20.90;52.70;;;;;;8348812;28;20033;-45
2023/12/29 16:05:42;;;;;;;18.25;5.03;;;20.90;52.80;;;;;;8343724;28;20402;-48
2023/12/29 16:09:42;;;;;;;16.23;4.60;;;20.90;53.40;;;;;;8345763;28;20037;-47
2023/12/29 16:13:43;;;;;;;16.55;5.28;;;20.90;52.80;;;;;;8352653;28;20075;-47
2023/12/29 16:17:44;;;;;;;10.25;3.67;;;20.90;53.00;;;;;;8344001;28;20029;-47
2023/12/29 16:21:44;;;;;;;20.85;4.68;;;20.90;52.90;;;;;;8342210;28;20376;-48
2023/12/29 16:25:45;;;;;;;17.33;3.95;;;21.00;53.00;;;;;;8350416;28;20048;-48
2023/12/29 16:29:46;;;;;;;10.02;3.75;;;21.00;53.00;;;;;;8348581;28;20083;-50
2023/12/29 16:33:47;;;;;;;13.15;4.18;;;21.00;53.10;;;;;;8352583;28;20121;-50
2023/12/29 16:37:49;;;;;;;18.73;3.78;;;21.00;53.20;;;;;;8362010;28;20036;-48
2023/12/29 16:41:49;;;;;;;21.00;4.40;;;20.90;53.20;;;;;;8355004;28;20046;-49
2023/12/29 16:45:51;;;;;;;9.75;4.05;;;20.90;53.30;;;;;;8350763;28;20045;-47
2023/12/29 16:49:52;;;;;;;19.48;5.07;;;21.00;53.20;;;;;;8350034;28;20056;-46
2023/12/29 16:53:52;;;;;;;27.15;6.63;;;21.00;53.80;;;;;;8347283;28;20090;-48
2023/12/29 16:57:53;;;;;;;20.95;6.90;;;21.00;54.60;;;;;;8349389;28;20037;-47
2023/12/29 17:01:57;;;;;;;16.33;4.95;;;21.10;54.30;;;;;;8348689;28;20048;-52
2023/12/29 17:05:57;;;;;;;37.28;11.10;;;21.10;53.80;;;;;;8349584;28;20072;-50
2023/12/29 17:09:58;;;;;;;38.05;9.05;;;21.10;56.30;;;;;;8348677;28;20039;-50
2023/12/29 17:13:59;;;;;;;17.23;7.35;;;21.10;55.10;;;;;;8348501;28;20033;-50
2023/12/29 17:17:59;;;;;;;18.52;5.50;;;21.00;53.80;;;;;;8348661;28;20427;-49
2023/12/29 17:22:01;;;;;;;10.75;4.07;;;20.80;52.30;;;;;;8345075;28;20097;-49
2023/12/29 17:26:03;;;;;;;10.77;3.20;;;20.60;51.20;;;;;;8345182;28;20398;-48
2023/12/29 17:30:05;;;;;;;9.35;3.20;;;20.50;50.70;;;;;;8356605;28;20049;-48
2023/12/29 17:34:05;;;;;;;13.20;2.90;;;20.50;50.30;;;;;;8360381;28;20036;-50
2023/12/29 17:38:06;;;;;;;11.20;2.88;;;20.40;49.80;;;;;;8354119;28;20065;-49
2023/12/29 17:42:10;;;;;;;6.15;2.13;;;20.40;49.40;;;;;;8357100;28;20076;-46
2023/12/29 17:46:11;;;;;;;4.93;2.28;;;20.40;50.20;;;;;;8343010;28;20060;-47
2023/12/29 17:50:13;;;;;;;9.82;2.50;;;20.50;52.20;;;;;;8344763;28;20037;-46
2023/12/29 17:54:14;;;;;;;6.68;2.70;;;20.70;52.60;;;;;;8342492;28;20060;-49
2023/12/29 17:58:15;;;;;;;8.70;2.47;;;20.80;52.80;;;;;;8350705;28;20087;-53
2023/12/29 18:02:16;;;;;;;10.10;2.33;;;20.90;52.70;;;;;;8355331;28;20041;-49
2023/12/29 18:06:17;;;;;;;8.40;2.42;;;20.90;52.40;;;;;;8335610;28;20072;-48
2023/12/29 18:10:18;;;;;;;10.52;2.88;;;20.90;52.10;;;;;;8351551;28;20038;-48
2023/12/29 18:14:20;;;;;;;11.75;2.92;;;20.90;52.10;;;;;;8330898;28;20544;-53
2023/12/29 18:18:20;;;;;;;8.63;2.65;;;21.00;52.20;;;;;;8331025;28;20059;-52
2023/12/29 18:22:21;;;;;;;15.30;4.03;;;21.00;52.90;;;;;;8345630;28;20047;-53
2023/12/29 18:26:22;;;;;;;9.20;2.45;;;21.10;52.60;;;;;;8333741;28;20044;-47
2023/12/29 18:30:22;;;;;;;23.92;4.82;;;21.10;52.60;;;;;;8352671;28;20107;-46
2023/12/29 18:34:23;;;;;;;6.75;2.67;;;21.10;52.00;;;;;;8357121;28;20056;-45
2023/12/29 18:38:24;;;;;;;6.50;2.58;;;21.00;52.40;;;;;;8353647;28;20029;-45
2023/12/29 18:42:26;;;;;;;14.07;2.50;;;21.00;52.30;;;;;;8341347;28;20041;-48
2023/12/29 18:46:27;;;;;;;16.50;3.20;;;21.00;52.20;;;;;;8330642;28;20041;-48
2023/12/29 18:50:28;;;;;;;9.85;2.35;;;20.90;52.50;;;;;;8330124;28;20533;-45
2023/12/29 18:54:32;;;;;;;8.90;2.35;;;20.90;52.50;;;;;;8328765;28;20391;-46
2023/12/29 18:58:36;;;;;;;7.88;2.05;;;20.90;52.40;;;;;;8351161;28;20031;-47
2023/12/29 19:02:37;;;;;;;6.07;2.20;;;20.90;52.60;;;;;;8350510;28;20040;-43
2023/12/29 19:06:37;;;;;;;6.22;2.20;;;21.00;52.50;;;;;;8348024;28;20162;-49
2023/12/29 19:10:38;;;;;;;7.25;2.08;;;21.10;53.00;;;;;;8353780;28;20096;-46
2023/12/29 19:14:42;;;;;;;12.50;2.53;;;21.10;53.30;;;;;;8341596;28;20041;-48
2023/12/29 19:18:42;;;;;;;4.82;1.95;;;21.10;53.50;;;;;;8343097;28;20467;-46
2023/12/29 19:22:43;;;;;;;9.35;2.22;;;21.20;53.40;;;;;;8357049;28;20047;-46
2023/12/29 19:26:44;;;;;;;6.20;2.22;;;21.20;53.60;;;;;;8358535;28;20955;-47
2023/12/29 19:30:45;;;;;;;;;;;21.20;53.40;;;;;;8329782;28;20041;-45
2023/12/29 19:34:45;;;;;;;9.30;2.63;;;21.20;53.70;;;;;;8329682;28;19923;-44
2023/12/29 19:38:51;;;;;;;7.85;2.20;;;21.20;54.20;;;;;;8357284;28;20041;-48
2023/12/29 19:42:51;;;;;;;8.57;2.15;;;21.20;53.70;;;;;;8362069;28;20386;-44
2023/12/29 19:46:52;;;;;;;5.38;1.85;;;21.20;53.90;;;;;;8362167;28;20395;-46
2023/12/29 19:50:53;;;;;;;7.65;1.80;;;21.20;54.10;;;;;;8343292;28;20049;-44
2023/12/29 19:54:54;;;;;;;15.63;2.50;;;21.30;54.00;;;;;;8357412;28;20482;-45
2023/12/29 19:58:55;;;;;;;;;;;21.20;53.90;;;;;;8360271;28;20112;-45
2023/12/29 20:02:55;;;;;;;8.60;1.85;;;21.30;53.90;;;;;;8346835;28;20444;-44
2023/12/29 20:06:56;;;;;;;14.82;2.13;;;21.30;53.70;;;;;;8338879;28;20058;-44
2023/12/29 20:10:57;;;;;;;6.78;1.98;;;21.40;53.80;;;;;;8339233;28;20041;-45
2023/12/29 20:14:58;;;;;;;6.65;1.85;;;21.30;53.70;;;;;;8338835;28;20041;-47
2023/12/29 20:19:00;;;;;;;10.60;1.92;;;21.30;53.90;;;;;;8340262;28;20409;-45
2023/12/29 20:23:01;;;;;;;12.65;2.85;;;21.40;53.90;;;;;;8363754;28;20037;-45
2023/12/29 20:27:02;;;;;;;4.40;1.98;;;21.40;54.10;;;;;;8352674;28;20035;-45
2023/12/29 20:31:03;;;;;;;7.47;2.22;;;21.40;53.70;;;;;;8351299;28;20048;-46
2023/12/29 20:35:04;;;;;;;13.05;2.25;;;21.30;54.50;;;;;;8341898;28;20030;-45
2023/12/29 20:39:05;;;;;;;14.32;1.98;;;21.30;54.00;;;;;;8342061;28;20521;-49
2023/12/29 20:43:05;;;;;;;12.60;2.33;;;21.40;54.30;;;;;;8340001;28;20041;-46
2023/12/29 20:47:07;;;;;;;7.60;2.20;;;21.40;53.90;;;;;;8340023;28;20063;-46
2023/12/29 20:51:11;;;;;;;16.25;2.33;;;21.40;54.30;;;;;;8335333;28;20229;-45
2023/12/29 20:55:11;;;;;;;3.17;1.60;;;21.40;54.20;;;;;;8354904;28;20068;-46